Time,TemperatureF,DewpointF,PressureIn,WindDirection,WindDirectionDegrees,WindSpeedMPH,WindSpeedGustMPH,Humidity,HourlyPrecipIn,Conditions,Clouds,dailyrainin,SolarRadiationWatts/m^2,SoftwareType,DateUTC
2013-01-28 17:32:00,42.0,41.0,-100.00,West,278,11.0,17.0,96,-99.99,,,0.72,22.000000,,2013-01-29 01:32:00,
2013-01-28 17:42:00,42.0,41.0,-100.00,West,278,11.0,17.0,96,-99.99,,,0.72,22.000000,,2013-01-29 01:42:00,
2013-01-28 17:52:00,42.0,41.0,-100.00,West,278,11.0,17.0,96,-99.99,,,0.72,22.000000,,2013-01-29 01:52:00,
2013-01-28 18:01:00,42.0,41.0,-100.00,West,278,11.0,17.0,96,-99.99,,,0.72,22.000000,,2013-01-29 02:01:00,
2013-01-28 18:11:00,42.0,41.0,-100.00,West,278,11.0,17.0,96,-99.99,,,0.72,22.000000,,2013-01-29 02:11:00,
2013-01-28 18:42:00,41.0,40.0,-100.00,WNW,292,10.0,19.0,98,0.02,,,0.63,1.000000,,2013-01-29 02:42:00,
2013-01-28 18:53:00,41.0,40.0,-100.00,WNW,292,10.0,19.0,98,0.02,,,0.63,1.000000,,2013-01-29 02:53:00,
2013-01-28 19:02:00,41.0,40.0,-100.00,WNW,292,10.0,19.0,98,0.02,,,0.63,1.000000,,2013-01-29 03:02:00,
2013-01-28 19:11:00,41.0,40.0,-100.00,WNW,292,10.0,19.0,98,0.02,,,0.63,1.000000,,2013-01-29 03:11:00,
2013-01-28 19:32:00,41.0,40.0,-100.00,WNW,289,12.0,18.0,97,0.01,,,0.55,0.000000,,2013-01-29 03:32:00,
2013-01-28 19:42:00,41.0,40.0,-100.00,WNW,289,12.0,18.0,97,0.01,,,0.55,0.000000,,2013-01-29 03:42:00,
2013-01-28 19:53:00,41.0,40.0,-100.00,WNW,289,12.0,18.0,97,0.01,,,0.55,0.000000,,2013-01-29 03:53:00,
2013-01-28 20:01:00,41.0,40.0,-100.00,WNW,289,12.0,18.0,97,0.01,,,0.55,0.000000,,2013-01-29 04:01:00,
2013-01-28 20:11:00,41.0,40.0,-100.00,WNW,289,12.0,18.0,97,0.01,,,0.55,0.000000,,2013-01-29 04:11:00,
2013-01-28 20:32:00,41.0,40.0,-100.00,NW,306,6.0,15.0,97,0.02,,,0.46,0.000000,,2013-01-29 04:32:00,
2013-01-28 20:42:00,41.0,40.0,-100.00,NW,306,6.0,15.0,97,0.02,,,0.46,0.000000,,2013-01-29 04:42:00,
2013-01-28 20:52:00,41.0,40.0,-100.00,NW,306,6.0,15.0,97,0.02,,,0.46,0.000000,,2013-01-29 04:52:00,
2013-01-28 21:03:00,41.0,40.0,-100.00,NW,306,6.0,15.0,97,0.02,,,0.46,0.000000,,2013-01-29 05:03:00,
2013-01-28 21:12:00,41.0,40.0,-100.00,NW,306,6.0,15.0,97,0.02,,,0.46,0.000000,,2013-01-29 05:12:00,
2013-01-28 21:32:00,42.0,41.0,-100.00,WNW,303,12.0,21.0,98,0.01,,,0.43,0.000000,,2013-01-29 05:32:00,
2013-01-28 21:42:00,42.0,41.0,-100.00,WNW,303,12.0,21.0,98,0.01,,,0.43,0.000000,,2013-01-29 05:42:00,
2013-01-28 21:52:00,42.0,41.0,-100.00,WNW,303,12.0,21.0,98,0.01,,,0.43,0.000000,,2013-01-29 05:52:00,
2013-01-28 22:01:00,42.0,41.0,-100.00,WNW,303,12.0,21.0,98,0.01,,,0.43,0.000000,,2013-01-29 06:01:00,
2013-01-28 22:11:00,42.0,41.0,-100.00,WNW,303,12.0,21.0,98,0.01,,,0.43,0.000000,,2013-01-29 06:11:00,
2013-01-28 22:32:00,41.0,40.0,-100.00,NW,308,6.0,16.0,97,0.03,,,0.40,0.000000,,2013-01-29 06:32:00,
2013-01-28 22:42:00,41.0,40.0,-100.00,NW,308,6.0,16.0,97,0.03,,,0.40,0.000000,,2013-01-29 06:42:00,
2013-01-28 22:52:00,41.0,40.0,-100.00,NW,308,6.0,16.0,97,0.03,,,0.40,0.000000,,2013-01-29 06:52:00,
2013-01-28 23:01:00,41.0,40.0,-100.00,NW,308,6.0,16.0,97,0.03,,,0.40,0.000000,,2013-01-29 07:01:00,
2013-01-28 23:11:00,41.0,40.0,-100.00,NW,308,6.0,16.0,97,0.03,,,0.40,0.000000,,2013-01-29 07:11:00,
2013-01-28 23:32:00,41.0,40.0,-100.00,WNW,297,11.0,21.0,96,0.00,,,0.35,0.000000,,2013-01-29 07:32:00,
2013-01-28 23:42:00,41.0,40.0,-100.00,WNW,297,11.0,21.0,96,0.00,,,0.35,0.000000,,2013-01-29 07:42:00,
2013-01-28 23:52:00,41.0,40.0,-100.00,WNW,297,11.0,21.0,96,0.00,,,0.35,0.000000,,2013-01-29 07:52:00,